createdAt,value
2023-05-19T00:00:50.604Z,51.211784
2023-05-19T00:01:48.979Z,51.211773
2023-05-19T00:02:49.041Z,51.211853
2023-05-19T00:03:48.945Z,51.211899
2023-05-19T00:04:48.931Z,51.211880
2023-05-19T00:05:48.980Z,51.211868
2023-05-19T00:06:48.937Z,51.211834
2023-05-19T00:07:48.929Z,51.211693
2023-05-19T00:08:48.950Z,51.211830
2023-05-19T00:09:48.919Z,51.211651
2023-05-19T00:10:48.913Z,51.211864
2023-05-19T00:11:48.923Z,51.211990
2023-05-19T00:12:48.905Z,51.211956
2023-05-19T00:13:48.900Z,51.211811
2023-05-19T00:14:48.895Z,51.211563
2023-05-19T00:15:48.915Z,51.211956
2023-05-19T00:16:48.866Z,51.211990
2023-05-19T00:17:48.895Z,51.211903
2023-05-19T00:18:49.913Z,51.211853
2023-05-19T00:19:49.375Z,51.211815
2023-05-19T00:20:48.867Z,51.211884
2023-05-19T00:21:48.840Z,51.211960
2023-05-19T00:22:48.842Z,51.212017
2023-05-19T00:23:48.845Z,51.211956
2023-05-19T00:24:48.838Z,51.211899
2023-05-19T00:25:48.850Z,51.211735
2023-05-19T00:26:48.803Z,51.211639
2023-05-19T00:27:48.808Z,51.211700
2023-05-19T00:28:48.799Z,51.211773
2023-05-19T00:29:48.831Z,51.211754
2023-05-19T00:30:48.802Z,51.211803
2023-05-19T00:31:48.830Z,51.211807
2023-05-19T00:32:48.826Z,51.211750
2023-05-19T00:33:48.781Z,51.211864
2023-05-19T00:34:48.783Z,51.211926
2023-05-19T00:35:48.759Z,51.211857
2023-05-19T00:36:48.745Z,51.211926
2023-05-19T00:37:48.786Z,51.212097
2023-05-19T00:38:48.745Z,51.212055
2023-05-19T00:39:48.731Z,51.211884
2023-05-19T00:40:48.747Z,51.211521
2023-05-19T00:41:48.742Z,51.211765
2023-05-19T00:42:48.768Z,51.211781
2023-05-19T00:43:48.749Z,51.211693
2023-05-19T00:44:48.728Z,51.212063
2023-05-19T00:45:48.717Z,51.212124
2023-05-19T00:46:48.751Z,51.211948
2023-05-19T00:47:48.779Z,51.211964
2023-05-19T00:48:48.710Z,51.211815
2023-05-19T00:49:48.694Z,51.211914
2023-05-19T00:50:48.691Z,51.211842
2023-05-19T00:51:48.691Z,51.211605
2023-05-19T00:52:48.662Z,51.211945
2023-05-19T00:53:48.670Z,51.212223
2023-05-19T00:54:48.659Z,51.212242
2023-05-19T00:55:48.675Z,51.212177
2023-05-19T00:56:48.630Z,51.212109
2023-05-19T00:57:48.633Z,51.211979
2023-05-19T00:58:48.629Z,51.212185
2023-05-19T00:59:48.621Z,51.212132
2023-05-19T01:00:48.648Z,51.212101
2023-05-19T01:01:48.600Z,51.212128
2023-05-19T01:02:48.720Z,51.212219
2023-05-19T01:03:48.780Z,51.212231
2023-05-19T01:04:48.606Z,51.212296
2023-05-19T01:05:48.636Z,51.212284
2023-05-19T01:06:48.669Z,51.212189
2023-05-19T01:07:48.567Z,51.212151
2023-05-19T01:08:48.578Z,51.212109
2023-05-19T01:09:48.576Z,51.212078
2023-05-19T01:10:48.550Z,51.212105
2023-05-19T01:11:48.550Z,51.212128
2023-05-19T01:12:48.557Z,51.212128
2023-05-19T01:13:48.973Z,51.212097
2023-05-19T01:14:49.396Z,51.212204
2023-05-19T01:15:48.556Z,51.212173
2023-05-19T01:16:48.712Z,51.212093
2023-05-19T01:17:48.570Z,51.212055
2023-05-19T01:18:48.551Z,51.211884
2023-05-19T01:19:48.540Z,51.211926
2023-05-19T01:20:48.510Z,51.211983
2023-05-19T01:21:48.498Z,51.212032
2023-05-19T01:22:49.408Z,51.212067
2023-05-19T01:23:48.488Z,51.212101
2023-05-19T01:24:49.392Z,51.212082
2023-05-19T01:25:48.556Z,51.212101
2023-05-19T01:26:48.462Z,51.212147
2023-05-19T01:27:48.485Z,51.212082
2023-05-19T01:28:48.458Z,51.212017
2023-05-19T01:29:48.530Z,51.212070
2023-05-19T01:30:48.451Z,51.212051
2023-05-19T01:31:48.525Z,51.212105
2023-05-19T01:32:48.529Z,51.212158
2023-05-19T01:33:48.428Z,51.212135
2023-05-19T01:34:49.405Z,51.212151
2023-05-19T01:35:48.492Z,51.212170
2023-05-19T01:36:48.417Z,51.212364
2023-05-19T01:37:48.414Z,51.212193
2023-05-19T01:38:48.410Z,51.212044
2023-05-19T01:39:49.390Z,51.212040
2023-05-19T01:40:48.437Z,51.212044
2023-05-19T01:41:48.373Z,51.211952
2023-05-19T01:42:48.370Z,51.212112
2023-05-19T01:43:48.392Z,51.212223
2023-05-19T01:44:49.378Z,51.212196
2023-05-19T01:45:48.482Z,51.212151
2023-05-19T01:46:48.342Z,51.212181
2023-05-19T01:47:48.378Z,51.212177
2023-05-19T01:48:48.319Z,51.212139
2023-05-19T01:49:48.356Z,51.212193
2023-05-19T01:50:48.341Z,51.212135
2023-05-19T01:51:48.302Z,51.212063
2023-05-19T01:52:48.326Z,51.212097
2023-05-19T01:53:48.298Z,51.212017
2023-05-19T01:54:48.962Z,51.211933
2023-05-19T01:55:48.440Z,51.212082
2023-05-19T01:56:48.274Z,51.212231
2023-05-19T01:57:48.258Z,51.212189
2023-05-19T01:58:48.266Z,51.211937
2023-05-19T01:59:48.332Z,51.212017
2023-05-19T02:00:48.292Z,51.212025
2023-05-19T02:01:48.301Z,51.211990
2023-05-19T02:02:48.246Z,51.211861
2023-05-19T02:03:48.282Z,51.211819
2023-05-19T02:04:49.039Z,51.211895
2023-05-19T02:05:48.277Z,51.212147
2023-05-19T02:06:48.209Z,51.211998
2023-05-19T02:07:48.212Z,51.211887
2023-05-19T02:08:48.213Z,51.212051
2023-05-19T02:09:48.264Z,51.212017
2023-05-19T02:10:48.189Z,51.212105
2023-05-19T02:11:48.184Z,51.212158
2023-05-19T02:12:48.172Z,51.212193
2023-05-19T02:13:48.181Z,51.212318
2023-05-19T02:14:48.179Z,51.212391
2023-05-19T02:15:48.200Z,51.211971
2023-05-19T02:16:48.381Z,51.212162
2023-05-19T02:17:48.322Z,51.212120
2023-05-19T02:18:48.175Z,51.212093
2023-05-19T02:19:48.267Z,51.212257
2023-05-19T02:20:48.133Z,51.212086
2023-05-19T02:21:49.153Z,51.212040
2023-05-19T02:22:48.138Z,51.211971
2023-05-19T02:23:48.108Z,51.211979
2023-05-19T02:24:48.153Z,51.212124
2023-05-19T02:25:48.105Z,51.211853
2023-05-19T02:26:48.091Z,51.212101
2023-05-19T02:27:48.107Z,51.212036
2023-05-19T02:28:48.101Z,51.212063
2023-05-19T02:29:48.074Z,51.212082
2023-05-19T02:30:48.054Z,51.212013
2023-05-19T02:31:48.144Z,51.211983
2023-05-19T02:32:48.165Z,51.212044
2023-05-19T02:33:48.050Z,51.212017
2023-05-19T02:34:48.045Z,51.212051
2023-05-19T02:35:48.046Z,51.212204
2023-05-19T02:36:48.045Z,51.212276
2023-05-19T02:37:48.086Z,51.212135
2023-05-19T02:38:48.028Z,51.211926
2023-05-19T02:39:48.040Z,51.211979
2023-05-19T02:40:48.008Z,51.212154
2023-05-19T02:41:48.002Z,51.211964
2023-05-19T02:42:48.020Z,51.212074
2023-05-19T02:43:47.973Z,51.211937
2023-05-19T02:44:47.986Z,51.211807
2023-05-19T02:45:47.986Z,51.211964
2023-05-19T02:46:48.030Z,51.211803
2023-05-19T02:47:47.998Z,51.211903
2023-05-19T02:48:47.970Z,51.212029
2023-05-19T02:49:47.989Z,51.211948
2023-05-19T02:50:47.947Z,51.212109
2023-05-19T02:51:47.945Z,51.212166
2023-05-19T02:52:47.927Z,51.212009
2023-05-19T02:53:47.931Z,51.211849
2023-05-19T02:54:47.949Z,51.212013
2023-05-19T02:55:47.938Z,51.212055
2023-05-19T02:56:47.929Z,51.212204
2023-05-19T02:57:47.944Z,51.211945
2023-05-19T02:58:47.928Z,51.212124
2023-05-19T02:59:47.895Z,51.211987
2023-05-19T03:00:47.929Z,51.212070
2023-05-19T03:01:47.922Z,51.212002
2023-05-19T03:02:47.987Z,51.212009
2023-05-19T03:03:48.011Z,51.212154
2023-05-19T03:04:47.868Z,51.212048
2023-05-19T03:05:47.884Z,51.212112
2023-05-19T03:06:47.850Z,51.211918
2023-05-19T03:07:47.851Z,51.212097
2023-05-19T03:08:47.832Z,51.211815
2023-05-19T03:09:47.836Z,51.212036
2023-05-19T03:10:47.817Z,51.212109
2023-05-19T03:11:47.833Z,51.211922
2023-05-19T03:12:48.855Z,51.211971
2023-05-19T03:13:47.836Z,51.211903
2023-05-19T03:14:47.820Z,51.212029
2023-05-19T03:15:47.853Z,51.212063
2023-05-19T03:16:47.889Z,51.212109
2023-05-19T03:17:47.842Z,51.212124
2023-05-19T03:18:47.898Z,51.212238
2023-05-19T03:19:47.846Z,51.212196
2023-05-19T03:20:47.775Z,51.212063
2023-05-19T03:21:47.768Z,51.212063
2023-05-19T03:22:47.744Z,51.212204
2023-05-19T03:23:47.759Z,51.212296
2023-05-19T03:24:47.738Z,51.212162
2023-05-19T03:25:47.729Z,51.212139
2023-05-19T03:26:47.786Z,51.212101
2023-05-19T03:27:47.760Z,51.212112
2023-05-19T03:28:47.737Z,51.212147
2023-05-19T03:29:47.725Z,51.212166
2023-05-19T03:30:47.704Z,51.212132
2023-05-19T03:31:47.700Z,51.212185
2023-05-19T03:32:47.866Z,51.212231
2023-05-19T03:33:47.728Z,51.212303
2023-05-19T03:34:47.904Z,51.212296
2023-05-19T03:35:47.663Z,51.212231
2023-05-19T03:36:47.692Z,51.212196
2023-05-19T03:37:47.696Z,51.212170
2023-05-19T03:38:47.660Z,51.212154
2023-05-19T03:39:48.341Z,51.212109
2023-05-19T03:40:47.642Z,51.212105
2023-05-19T03:41:47.665Z,51.212120
2023-05-19T03:42:47.747Z,51.212162
2023-05-19T03:43:47.649Z,51.212261
2023-05-19T03:44:48.387Z,51.212177
2023-05-19T03:45:47.647Z,51.212189
2023-05-19T03:46:47.607Z,51.212196
2023-05-19T03:47:47.670Z,51.212097
2023-05-19T03:48:47.611Z,51.212090
2023-05-19T03:49:48.382Z,51.212082
2023-05-19T03:50:47.606Z,51.212112
2023-05-19T03:51:47.588Z,51.212036
2023-05-19T03:52:47.573Z,51.211983
2023-05-19T03:53:47.556Z,51.212021
2023-05-19T03:54:48.285Z,51.212109
2023-05-19T03:55:47.557Z,51.212086
2023-05-19T03:56:47.541Z,51.212063
2023-05-19T03:57:47.579Z,51.212009
2023-05-19T03:58:47.550Z,51.212021
2023-05-19T03:59:48.328Z,51.211994
2023-05-19T04:00:47.511Z,51.212044
2023-05-19T04:01:47.548Z,51.212059
2023-05-19T04:02:47.559Z,51.212185
2023-05-19T04:03:47.572Z,51.212135
2023-05-19T04:04:47.668Z,51.212044
2023-05-19T04:05:47.602Z,51.211952
2023-05-19T04:06:47.509Z,51.211956
2023-05-19T04:07:47.484Z,51.212059
2023-05-19T04:08:47.488Z,51.212189
2023-05-19T04:09:47.585Z,51.212189
2023-05-19T04:10:47.469Z,51.212162
2023-05-19T04:11:47.472Z,51.212231
2023-05-19T04:12:47.441Z,51.212132
2023-05-19T04:13:47.443Z,51.212154
2023-05-19T04:14:47.467Z,51.212070
2023-05-19T04:15:47.492Z,51.212002
2023-05-19T04:16:47.431Z,51.212017
2023-05-19T04:17:47.427Z,51.212166
2023-05-19T04:18:47.543Z,51.212246
2023-05-19T04:19:47.412Z,51.212166
2023-05-19T04:20:47.409Z,51.212132
2023-05-19T04:21:47.387Z,51.211983
2023-05-19T04:22:47.376Z,51.212154
2023-05-19T04:23:47.402Z,51.212074
2023-05-19T04:24:47.408Z,51.212059
2023-05-19T04:25:47.359Z,51.212139
2023-05-19T04:26:47.389Z,51.212315
2023-05-19T04:27:47.362Z,51.212227
2023-05-19T04:28:47.461Z,51.212158
2023-05-19T04:29:47.373Z,51.212120
2023-05-19T04:30:47.365Z,51.212200
2023-05-19T04:31:47.363Z,51.212223
2023-05-19T04:32:47.331Z,51.212101
2023-05-19T04:33:47.317Z,51.212044
2023-05-19T04:34:47.313Z,51.212116
2023-05-19T04:35:47.302Z,51.212093
2023-05-19T04:36:47.310Z,51.212120
2023-05-19T04:37:47.341Z,51.212139
2023-05-19T04:38:47.898Z,51.212082
2023-05-19T04:39:47.261Z,51.212124
2023-05-19T04:40:47.293Z,51.212109
2023-05-19T04:41:47.278Z,51.212124
2023-05-19T04:42:47.238Z,51.212147
2023-05-19T04:43:47.296Z,51.212032
2023-05-19T04:44:47.247Z,51.211979
2023-05-19T04:45:47.248Z,51.212074
2023-05-19T04:46:47.267Z,51.212246
2023-05-19T04:47:47.281Z,51.212296
2023-05-19T04:48:47.222Z,51.211918
2023-05-19T04:49:47.216Z,51.212090
2023-05-19T04:50:47.211Z,51.212078
2023-05-19T04:51:47.217Z,51.212124
2023-05-19T04:52:47.200Z,51.212086
2023-05-19T04:53:48.188Z,51.212132
2023-05-19T04:54:47.214Z,51.212181
2023-05-19T04:55:47.169Z,51.212105
2023-05-19T04:56:47.179Z,51.212116
2023-05-19T04:57:47.174Z,51.212112
2023-05-19T04:58:47.169Z,51.212143
2023-05-19T04:59:47.172Z,51.211838
2023-05-19T05:00:47.172Z,51.211918
2023-05-19T05:01:48.202Z,51.212154
2023-05-19T05:02:47.243Z,51.212021
2023-05-19T05:03:47.173Z,51.211956
2023-05-19T05:04:47.130Z,51.211884
2023-05-19T05:05:47.119Z,51.212139
2023-05-19T05:06:47.150Z,51.212036
2023-05-19T05:07:47.118Z,51.212059
2023-05-19T05:08:47.122Z,51.211975
2023-05-19T05:09:47.118Z,51.212059
2023-05-19T05:10:47.099Z,51.212147
2023-05-19T05:11:47.081Z,51.212147
2023-05-19T05:12:47.064Z,51.212170
2023-05-19T05:13:47.077Z,51.211998
2023-05-19T05:14:47.080Z,51.211880
2023-05-19T05:15:47.075Z,51.211864
2023-05-19T05:16:47.137Z,51.212032
2023-05-19T05:17:47.110Z,51.212093
2023-05-19T05:18:47.118Z,51.212276
2023-05-19T05:19:47.059Z,51.212200
2023-05-19T05:20:47.040Z,51.212132
2023-05-19T05:21:47.061Z,51.211929
2023-05-19T05:22:47.020Z,51.212051
2023-05-19T05:23:47.002Z,51.212048
2023-05-19T05:24:47.350Z,51.211777
2023-05-19T05:25:46.984Z,51.211929
2023-05-19T05:26:46.994Z,51.211895
2023-05-19T05:27:47.002Z,51.212032
2023-05-19T05:28:46.974Z,51.212124
2023-05-19T05:29:47.005Z,51.211811
2023-05-19T05:30:46.962Z,51.211823
2023-05-19T05:31:46.981Z,51.211758
2023-05-19T05:32:47.010Z,51.212017
2023-05-19T05:33:47.058Z,51.212196
2023-05-19T05:34:46.947Z,51.212048
2023-05-19T05:35:46.993Z,51.212135
2023-05-19T05:36:46.956Z,51.212151
2023-05-19T05:37:46.939Z,51.212246
2023-05-19T05:38:46.914Z,51.212299
2023-05-19T05:39:46.912Z,51.212158
2023-05-19T05:40:46.940Z,51.212101
2023-05-19T05:41:46.905Z,51.212177
2023-05-19T05:42:46.892Z,51.212208
2023-05-19T05:43:46.922Z,51.212173
2023-05-19T05:44:46.885Z,51.212193
2023-05-19T05:45:46.901Z,51.212002
2023-05-19T05:46:46.898Z,51.212082
2023-05-19T05:47:47.002Z,51.212185
2023-05-19T05:48:46.864Z,51.212173
2023-05-19T05:49:46.888Z,51.212116
2023-05-19T05:50:46.901Z,51.212326
2023-05-19T05:51:57.965Z,51.212227
2023-05-19T05:52:48.893Z,51.212200
2023-05-19T05:53:46.866Z,51.212193
2023-05-19T05:54:46.830Z,51.212234
2023-05-19T05:55:46.879Z,51.212242
2023-05-19T05:56:46.831Z,51.212257
2023-05-19T05:57:47.397Z,51.212250
2023-05-19T05:58:46.865Z,51.212177
2023-05-19T05:59:46.788Z,51.212288
2023-05-19T06:00:46.792Z,51.212303
2023-05-19T06:01:46.831Z,51.212318
2023-05-19T06:02:46.875Z,51.212280
2023-05-19T06:03:46.908Z,51.212276
2023-05-19T06:04:46.768Z,51.212311
2023-05-19T06:05:46.815Z,51.212147
2023-05-19T06:06:47.839Z,51.212154
2023-05-19T06:07:46.799Z,51.212238
2023-05-19T06:08:46.742Z,51.212223
2023-05-19T06:09:46.775Z,51.212307
2023-05-19T06:10:47.546Z,51.212090
2023-05-19T06:11:47.844Z,51.212090
2023-05-19T06:12:46.719Z,51.212097
2023-05-19T06:13:47.487Z,51.212193
2023-05-19T06:14:46.770Z,51.212158
2023-05-19T06:15:46.763Z,51.212162
2023-05-19T06:16:46.754Z,51.212135
2023-05-19T06:17:49.616Z,51.212200
2023-05-19T06:18:46.766Z,51.212234
2023-05-19T06:19:46.704Z,51.212223
2023-05-19T06:20:46.695Z,51.212143
2023-05-19T06:21:46.670Z,51.212284
2023-05-19T06:22:46.694Z,51.212227
2023-05-19T06:23:46.717Z,51.212120
2023-05-19T06:24:46.657Z,51.212116
2023-05-19T06:25:46.649Z,51.212090
2023-05-19T06:26:46.684Z,51.212086
2023-05-19T06:27:46.652Z,51.212032
2023-05-19T06:28:46.657Z,51.212017
2023-05-19T06:29:46.641Z,51.211945
2023-05-19T06:30:46.652Z,51.212097
2023-05-19T06:31:46.691Z,51.211994
2023-05-19T06:32:46.651Z,51.212025
2023-05-19T06:33:46.614Z,51.212109
2023-05-19T06:34:46.648Z,51.212067
2023-05-19T06:35:46.677Z,51.212166
2023-05-19T06:36:46.627Z,51.212299
2023-05-19T06:37:46.584Z,51.212234
2023-05-19T06:38:46.612Z,51.212078
2023-05-19T06:39:46.615Z,51.212116
2023-05-19T06:40:46.618Z,51.212105
2023-05-19T06:41:46.581Z,51.212242
2023-05-19T06:42:47.393Z,51.212200
2023-05-19T06:43:46.527Z,51.212276
2023-05-19T06:44:46.535Z,51.212254
2023-05-19T06:45:46.566Z,51.212185
2023-05-19T06:46:46.614Z,51.212139
2023-05-19T06:47:46.532Z,51.212109
2023-05-19T06:48:47.493Z,51.212097
2023-05-19T06:49:46.501Z,51.212219
2023-05-19T06:50:46.497Z,51.212143
2023-05-19T06:51:46.505Z,51.212215
2023-05-19T06:52:46.486Z,51.212170
2023-05-19T06:53:46.479Z,51.212151
2023-05-19T06:54:46.472Z,51.212078
2023-05-19T06:55:57.911Z,51.212112
2023-05-19T06:56:48.465Z,51.212086
2023-05-19T06:57:46.554Z,51.212021
2023-05-19T06:58:46.455Z,51.212013
2023-05-19T06:59:46.448Z,51.212078
2023-05-19T07:00:46.477Z,51.212147
2023-05-19T07:01:46.478Z,51.212181
2023-05-19T07:02:46.580Z,51.212109
2023-05-19T07:03:46.525Z,51.212166
2023-05-19T07:04:46.426Z,51.212299
2023-05-19T07:05:46.398Z,51.212276
2023-05-19T07:06:46.374Z,51.212109
2023-05-19T07:07:46.466Z,51.212063
2023-05-19T07:08:46.451Z,51.212177
2023-05-19T07:09:46.363Z,51.212200
2023-05-19T07:10:46.391Z,51.212070
2023-05-19T07:11:46.412Z,51.212093
2023-05-19T07:12:46.351Z,51.212204
2023-05-19T07:13:46.383Z,51.212177
2023-05-19T07:14:46.350Z,51.212147
2023-05-19T07:15:47.383Z,51.212120
2023-05-19T07:16:46.658Z,51.212177
2023-05-19T07:17:46.358Z,51.212185
2023-05-19T07:18:46.352Z,51.212189
2023-05-19T07:19:46.394Z,51.212158
2023-05-19T07:20:46.392Z,51.212151
2023-05-19T07:21:46.376Z,51.212219
2023-05-19T07:22:46.508Z,51.212231
2023-05-19T07:23:46.274Z,51.212173
2023-05-19T07:24:46.304Z,51.212135
2023-05-19T07:25:46.269Z,51.212265
2023-05-19T07:26:46.286Z,51.212208
2023-05-19T07:27:46.233Z,51.212208
2023-05-19T07:28:46.645Z,51.212090
2023-05-19T07:29:46.257Z,51.211994
2023-05-19T07:30:46.243Z,51.212074
2023-05-19T07:31:46.327Z,51.212120
2023-05-19T07:32:46.289Z,51.212116
2023-05-19T07:33:46.248Z,51.212196
2023-05-19T07:34:46.196Z,51.212040
2023-05-19T07:35:46.214Z,51.212166
2023-05-19T07:36:46.218Z,51.212109
2023-05-19T07:37:46.193Z,51.212017
2023-05-19T07:38:46.251Z,51.212181
2023-05-19T07:39:46.234Z,51.212112
2023-05-19T07:40:46.256Z,51.212067
2023-05-19T07:41:46.215Z,51.211987
2023-05-19T07:42:46.197Z,51.212143
2023-05-19T07:43:46.160Z,51.212215
2023-05-19T07:44:46.153Z,51.212265
2023-05-19T07:45:46.176Z,51.212334
2023-05-19T07:46:47.266Z,51.212303
2023-05-19T07:47:46.174Z,51.212170
2023-05-19T07:48:46.123Z,51.212303
2023-05-19T07:49:46.162Z,51.212219
2023-05-19T07:50:46.135Z,51.212025
2023-05-19T07:51:46.215Z,51.212112
2023-05-19T07:52:46.108Z,51.212227
2023-05-19T07:53:46.099Z,51.212265
2023-05-19T07:54:46.091Z,51.212353
2023-05-19T07:55:46.204Z,51.212185
2023-05-19T07:56:46.100Z,51.211960
2023-05-19T07:57:46.173Z,51.211910
2023-05-19T07:58:46.137Z,51.212059
2023-05-19T07:59:46.264Z,51.211922
2023-05-19T08:00:46.107Z,51.211945
2023-05-19T08:01:46.042Z,51.212044
2023-05-19T08:02:46.178Z,51.212280
2023-05-19T08:03:46.192Z,51.212353
2023-05-19T08:04:46.056Z,51.212559
2023-05-19T08:05:46.027Z,51.212425
2023-05-19T08:06:46.001Z,51.212376
2023-05-19T08:07:45.998Z,51.212334
2023-05-19T08:08:46.044Z,51.212162
2023-05-19T08:09:46.024Z,51.212017
2023-05-19T08:10:45.965Z,51.211998
2023-05-19T08:11:46.029Z,51.211990
2023-05-19T08:12:45.957Z,51.211960
2023-05-19T08:13:45.963Z,51.211964
2023-05-19T08:14:45.954Z,51.212059
2023-05-19T08:15:45.975Z,51.212116
2023-05-19T08:16:45.970Z,51.212158
2023-05-19T08:17:45.999Z,51.212231
2023-05-19T08:18:46.012Z,51.212273
2023-05-19T08:19:45.961Z,51.212284
2023-05-19T08:20:46.000Z,51.212273
2023-05-19T08:21:45.947Z,51.212166
2023-05-19T08:22:45.933Z,51.212017
2023-05-19T08:23:45.922Z,51.212151
2023-05-19T08:24:45.952Z,51.212227
2023-05-19T08:25:46.025Z,51.212185
2023-05-19T08:26:45.951Z,51.212299
2023-05-19T08:27:45.928Z,51.212299
2023-05-19T08:28:45.867Z,51.212418
2023-05-19T08:29:45.885Z,51.211655
2023-05-19T08:30:45.974Z,51.211525
2023-05-19T08:31:46.008Z,51.211773
2023-05-19T08:32:45.918Z,51.212025
2023-05-19T08:33:45.951Z,51.212093
2023-05-19T08:34:45.890Z,51.212292
2023-05-19T08:35:45.912Z,51.212494
2023-05-19T08:36:45.921Z,51.212669
2023-05-19T08:37:45.863Z,51.212646
2023-05-19T08:38:46.090Z,51.212494
2023-05-19T08:39:45.852Z,51.212528
2023-05-19T08:40:45.859Z,51.212559
2023-05-19T08:41:45.906Z,51.212410
2023-05-19T08:42:45.875Z,51.212280
2023-05-19T08:43:45.791Z,51.212097
2023-05-19T08:44:45.794Z,51.212132
2023-05-19T08:45:45.784Z,51.212139
2023-05-19T08:46:45.843Z,51.212124
2023-05-19T08:47:45.803Z,51.212013
2023-05-19T08:48:45.777Z,51.212097
2023-05-19T08:49:45.762Z,51.212204
2023-05-19T08:50:45.764Z,51.212288
2023-05-19T08:51:45.756Z,51.212193
2023-05-19T08:52:49.495Z,51.212341
2023-05-19T08:53:46.741Z,51.212337
2023-05-19T08:54:45.724Z,51.212234
2023-05-19T08:55:45.706Z,51.211788
2023-05-19T08:56:45.809Z,51.211666
2023-05-19T08:57:45.729Z,51.211926
2023-05-19T08:58:45.692Z,51.212002
2023-05-19T08:59:45.716Z,51.212250
2023-05-19T09:00:45.697Z,51.212082
2023-05-19T09:01:46.534Z,51.212151
2023-05-19T09:02:55.172Z,51.212242
2023-05-19T09:03:47.684Z,51.212368
2023-05-19T09:04:45.742Z,51.212311
2023-05-19T09:05:45.687Z,51.212154
2023-05-19T09:06:45.625Z,51.212177
2023-05-19T09:07:46.456Z,51.211834
2023-05-19T09:08:45.590Z,51.211891
2023-05-19T09:09:45.654Z,51.212399
2023-05-19T09:10:45.622Z,51.212257
2023-05-19T09:11:46.492Z,51.212006
2023-05-19T09:12:45.583Z,51.211666
2023-05-19T09:13:45.611Z,51.212070
2023-05-19T09:14:45.568Z,51.212437
2023-05-19T09:15:45.689Z,51.212128
2023-05-19T09:16:45.615Z,51.212070
2023-05-19T09:17:45.609Z,51.212021
2023-05-19T09:18:45.613Z,51.211948
2023-05-19T09:19:45.573Z,51.212006
2023-05-19T09:20:45.564Z,51.212040
2023-05-19T09:21:45.703Z,51.212109
2023-05-19T09:22:45.565Z,51.212139
2023-05-19T09:23:45.566Z,51.212032
2023-05-19T09:24:45.522Z,51.211990
2023-05-19T09:25:45.510Z,51.211967
2023-05-19T09:26:45.530Z,51.212040
2023-05-19T09:27:45.512Z,51.212093
2023-05-19T09:28:45.510Z,51.212097
2023-05-19T09:29:45.556Z,51.212215
2023-05-19T09:30:45.524Z,51.212173
2023-05-19T09:31:45.649Z,51.211945
2023-05-19T09:32:45.523Z,51.211941
2023-05-19T09:33:46.081Z,51.212044
2023-05-19T09:34:46.499Z,51.212185
2023-05-19T09:35:45.494Z,51.212166
2023-05-19T09:36:45.485Z,51.212109
2023-05-19T09:37:45.470Z,51.212097
2023-05-19T09:38:45.454Z,51.212151
2023-05-19T09:39:45.450Z,51.212093
2023-05-19T09:40:45.414Z,51.212044
2023-05-19T09:41:45.494Z,51.212082
2023-05-19T09:42:45.409Z,51.212082
2023-05-19T09:43:45.403Z,51.212055
2023-05-19T09:44:45.497Z,51.212040
2023-05-19T09:45:45.443Z,51.212109
2023-05-19T09:46:45.436Z,51.212154
2023-05-19T09:47:45.412Z,51.212254
2023-05-19T09:48:45.408Z,51.212063
2023-05-19T09:49:45.387Z,51.212029
2023-05-19T09:50:45.361Z,51.212025
2023-05-19T09:51:45.357Z,51.212002
2023-05-19T09:52:45.369Z,51.211971
2023-05-19T09:53:45.349Z,51.211971
2023-05-19T09:54:45.376Z,51.212048
2023-05-19T09:55:45.330Z,51.212013
2023-05-19T09:56:45.384Z,51.212261
2023-05-19T09:57:45.375Z,51.212284
2023-05-19T09:58:45.572Z,51.212036
2023-05-19T09:59:45.320Z,51.212151
2023-05-19T10:00:45.386Z,51.212086
2023-05-19T10:01:45.357Z,51.212078
2023-05-19T10:02:45.467Z,51.212067
2023-05-19T10:03:45.309Z,51.212063
2023-05-19T10:04:45.879Z,51.211964
2023-05-19T10:05:45.293Z,51.212017
2023-05-19T10:06:45.522Z,51.212032
2023-05-19T10:07:46.040Z,51.212215
2023-05-19T10:08:45.270Z,51.212265
2023-05-19T10:09:45.278Z,51.212299
2023-05-19T10:10:45.265Z,51.212044
2023-05-19T10:11:45.584Z,51.212051
2023-05-19T10:12:45.241Z,51.212002
2023-05-19T10:13:45.260Z,51.211994
2023-05-19T10:14:45.245Z,51.212025
2023-05-19T10:15:57.024Z,51.212040
2023-05-19T10:16:47.251Z,51.212093
2023-05-19T10:17:45.273Z,51.212086
2023-05-19T10:18:45.219Z,51.212074
2023-05-19T10:19:45.204Z,51.212135
2023-05-19T10:20:45.196Z,51.212189
2023-05-19T10:21:45.172Z,51.212185
2023-05-19T10:22:45.990Z,51.212105
2023-05-19T10:23:45.172Z,51.212196
2023-05-19T10:24:45.305Z,51.212154
2023-05-19T10:25:45.168Z,51.212128
2023-05-19T10:26:45.152Z,51.211861
2023-05-19T10:27:45.137Z,51.211937
2023-05-19T10:28:45.166Z,51.212116
2023-05-19T10:29:45.152Z,51.212021
2023-05-19T10:30:45.104Z,51.211956
2023-05-19T10:31:45.166Z,51.212021
2023-05-19T10:32:45.224Z,51.212070
2023-05-19T10:33:45.122Z,51.212147
2023-05-19T10:34:45.154Z,51.212025
2023-05-19T10:35:46.055Z,51.212070
2023-05-19T10:36:46.190Z,51.212048
2023-05-19T10:37:45.085Z,51.212070
2023-05-19T10:38:46.190Z,51.212097
2023-05-19T10:39:45.500Z,51.212002
2023-05-19T10:40:45.059Z,51.212154
2023-05-19T10:41:45.723Z,51.212044
2023-05-19T10:42:45.154Z,51.212017
2023-05-19T10:43:46.379Z,51.211987
2023-05-19T10:44:45.077Z,51.212097
2023-05-19T10:45:45.031Z,51.212139
2023-05-19T10:46:45.091Z,51.212029
2023-05-19T10:47:45.976Z,51.212120
2023-05-19T10:48:45.007Z,51.212070
2023-05-19T10:49:45.033Z,51.212036
2023-05-19T10:50:45.000Z,51.212029
2023-05-19T10:51:44.997Z,51.212212
2023-05-19T10:52:45.011Z,51.212185
2023-05-19T10:53:44.980Z,51.212097
2023-05-19T10:54:44.981Z,51.212051
2023-05-19T10:55:44.962Z,51.212044
2023-05-19T10:56:44.951Z,51.212208
2023-05-19T10:57:45.490Z,51.212208
2023-05-19T10:58:44.974Z,51.212143
2023-05-19T10:59:45.009Z,51.212288
2023-05-19T11:00:45.154Z,51.212254
2023-05-19T11:01:45.015Z,51.212318
2023-05-19T11:02:44.955Z,51.212063
2023-05-19T11:03:44.937Z,51.211876
2023-05-19T11:04:45.003Z,51.212063
2023-05-19T11:05:44.900Z,51.211994
2023-05-19T11:06:44.935Z,51.212112
2023-05-19T11:07:44.951Z,51.212067
2023-05-19T11:08:44.947Z,51.212154
2023-05-19T11:09:45.522Z,51.212200
2023-05-19T11:10:44.911Z,51.212139
2023-05-19T11:11:44.918Z,51.212013
2023-05-19T11:12:44.879Z,51.212120
2023-05-19T11:13:44.859Z,51.212048
2023-05-19T11:14:45.052Z,51.212082
2023-05-19T11:15:44.851Z,51.212063
2023-05-19T11:16:44.910Z,51.211998
2023-05-19T11:17:44.856Z,51.211994
2023-05-19T11:18:44.935Z,51.212063
2023-05-19T11:19:44.864Z,51.211956
2023-05-19T11:20:44.828Z,51.212135
2023-05-19T11:21:44.816Z,51.212166
2023-05-19T11:22:44.840Z,51.212105
2023-05-19T11:23:44.836Z,51.212112
2023-05-19T11:24:44.883Z,51.212097